EGNM/LBA METAR and TAF weather

Enter ICAO airport designator
Station Type Date Time Source
EGNM METAR 2021/05/13 17:50 UTC NOAA

EGNM 131750Z 01009KT CAVOK 11/08 Q1009


Station Type Date Time Source
EGNM Decoded METAR 2021/05/13 17:50 UTC NOAA

Leeds And Bradford, United Kingdom (EGNM) 53-52N 001-39W
May 13, 2021 - 01:50 PM EDT / 2021.05.13 1750 UTC
Wind: from the N (010 degrees) at 10 MPH (9 KT):0
Visibility: greater than 7 mile(s):0
Temperature: 51 F (11 C)
Dew Point: 46 F (8 C)
Relative Humidity: 81%
Pressure (altimeter): 29.80 in. Hg (1009 hPa)
ob: EGNM 131750Z 01009KT CAVOK 11/08 Q1009
cycle: 18

Station Type Date Time Source
EGNM TAF 2021/05/13 18:57 UTC NOAA

TAF EGNM 131951Z 1318/1418 CNL

Example: see airport list